Time;durP1;ratioP1;P1;durP2;ratioP2;P2;SDS_P1;SDS_P2;PMS_P1;PMS_P2;Temp;Humidity;BMP_temperature;BMP_pressure;BME280_temperature;BME280_humidity;BME280_pressure;Samples;Min_cycle;Max_cycle;Signal;HPM_P1;HPM_P2
2021/07/04 00:00:12;;;;;;;;;;;;;;;-142.75;76.75;76292.75;5032547;28;19996;-84
2021/07/04 00:02:37;;;;;;;;;;;;;;;-142.75;76.52;76310.47;4999050;28;20032;-84
2021/07/04 00:05:05;;;;;;;;;;;;;;;-142.75;77.04;76308.50;5000998;28;20020;-82
2021/07/04 00:07:30;;;;;;;;;;;;;;;-142.75;77.13;76298.66;5008777;28;19983;-83
2021/07/04 00:09:55;;;;;;;;;;;;;;;-142.75;77.04;76302.59;5033674;28;20454;-83
2021/07/04 00:12:21;;;;;;;;;;;;;;;-142.75;77.10;76302.59;5001796;28;19988;-84
2021/07/04 00:14:46;;;;;;;;;;;;;;;-142.75;77.04;76294.72;5002464;28;19936;-85
2021/07/04 00:17:11;;;;;;;;;;;;;;;-142.75;77.01;76288.81;5047223;22;19924;-80
2021/07/04 00:19:36;;;;;;;;;;;;;;;-142.75;77.06;76286.84;5040448;28;19921;-78
2021/07/04 00:22:01;;;;;;;;;;;;;;;-142.75;77.06;76294.72;5058815;28;19961;-80
2021/07/04 00:24:27;;;;;;;;;;;;;;;-142.75;76.99;76298.66;5057493;28;19921;-79
2021/07/04 00:26:52;;;;;;;;;;;;;;;-142.75;77.06;76306.53;5058942;28;19917;-80
2021/07/04 00:29:17;;;;;;;;;;;;;;;-142.75;77.40;76302.59;5033941;28;20294;-80
2021/07/04 00:31:42;;;;;;;;;;;;;;;-142.75;77.24;76300.63;5033956;28;19917;-80
2021/07/04 00:34:07;;;;;;;;;;;;;;;-142.75;77.18;76298.66;5034032;28;19920;-80
2021/07/04 00:36:33;;;;;;;;;;;;;;;-142.75;77.28;76294.72;5034023;28;20078;-80
2021/07/04 00:38:58;;;;;;;;;;;;;;;-142.75;77.27;76286.84;5034097;28;19916;-80
2021/07/04 00:41:24;;;;;;;;;;;;;;;-142.75;77.40;76290.78;5033651;28;20290;-79
2021/07/04 00:43:49;;;;;;;;;;;;;;;-142.75;77.37;76294.72;5051790;28;19943;-78
2021/07/04 00:46:15;;;;;;;;;;;;;;;-142.75;77.50;76290.78;5034075;28;19917;-79
2021/07/04 00:48:40;;;;;;;;;;;;;;;-142.75;77.46;76294.72;5051441;28;20331;-80
2021/07/04 00:51:05;;;;;;;;;;;;;;;-142.75;78.17;76296.69;5033996;28;19920;-81
2021/07/04 00:53:31;;;;;;;;;;;;;;;-142.75;78.15;76294.72;5034140;28;19916;-79
2021/07/04 00:55:56;;;;;;;;;;;;;;;-142.75;78.29;76298.66;5051791;28;19927;-79
2021/07/04 00:58:21;;;;;;;;;;;;;;;-142.75;78.27;76290.78;5033751;28;20290;-79
2021/07/04 01:00:46;;;;;;;;;;;;;;;-142.75;78.08;76294.72;5051204;28;19921;-80
2021/07/04 01:03:12;;;;;;;;;;;;;;;-142.75;78.20;76294.72;5033909;28;19916;-79
2021/07/04 01:05:38;;;;;;;;;;;;;;;-142.75;78.20;76282.91;5033854;28;19991;-79
2021/07/04 01:08:04;;;;;;;;;;;;;;;-142.75;78.09;76280.94;5033708;28;19917;-80
2021/07/04 01:10:30;;;;;;;;;;;;;;;-142.75;77.95;76269.13;5033331;28;19927;-79
2021/07/04 01:12:56;;;;;;;;;;;;;;;-142.75;77.87;76269.13;5051353;28;19917;-80
2021/07/04 01:15:25;;;;;;;;;;;;;;;-142.75;77.66;76267.16;5033531;28;19923;-81
2021/07/04 01:17:51;;;;;;;;;;;;;;;-142.75;77.42;76267.16;5032385;28;19964;-79
2021/07/04 01:20:17;;;;;;;;;;;;;;;-142.75;77.16;76280.94;5051173;28;19959;-80
2021/07/04 01:22:58;;;;;;;;;;;;;;;-142.75;77.08;76282.91;5033692;28;20329;-79
2021/07/04 01:25:24;;;;;;;;;;;;;;;-142.75;76.92;76286.84;5050621;28;19962;-80
2021/07/04 01:27:49;;;;;;;;;;;;;;;-142.75;77.11;76271.09;5051619;28;20366;-79
2021/07/04 01:30:15;;;;;;;;;;;;;;;-142.75;76.81;76277.00;5050930;28;19925;-80
2021/07/04 01:32:40;;;;;;;;;;;;;;;-142.75;76.33;76296.69;5051521;28;20015;-79
2021/07/04 01:35:06;;;;;;;;;;;;;;;-142.75;76.25;76306.53;5033868;28;20007;-79
2021/07/04 01:37:31;;;;;;;;;;;;;;;-142.75;76.21;76314.41;5051317;28;19921;-79
2021/07/04 01:39:56;;;;;;;;;;;;;;;-142.75;76.37;76318.34;5033289;28;20306;-79
2021/07/04 01:42:22;;;;;;;;;;;;;;;-142.75;76.62;76328.19;5051442;28;20011;-79
2021/07/04 01:44:47;;;;;;;;;;;;;;;-142.75;76.57;76334.09;5051497;28;19977;-80
2021/07/04 01:47:12;;;;;;;;;;;;;;;-142.75;76.64;76330.16;5033414;28;20438;-78
2021/07/04 01:49:37;;;;;;;;;;;;;;;-142.75;76.87;76330.16;5051212;28;19940;-79
2021/07/04 01:52:03;;;;;;;;;;;;;;;-142.75;76.72;76336.06;5033084;28;19924;-79
2021/07/04 01:54:28;;;;;;;;;;;;;;;-142.75;76.70;76336.06;5051143;28;20336;-80
2021/07/04 01:56:53;;;;;;;;;;;;;;;-142.75;76.95;76341.97;5051158;28;19923;-79
2021/07/04 01:59:18;;;;;;;;;;;;;;;-142.75;77.31;76343.94;5052989;28;19923;-80
2021/07/04 02:01:44;;;;;;;;;;;;;;;-142.75;77.68;76345.91;5055200;28;19916;-79
2021/07/04 02:04:09;;;;;;;;;;;;;;;-142.75;77.48;76345.91;5055462;28;20053;-80
2021/07/04 02:06:34;;;;;;;;;;;;;;;-142.75;77.39;76340.00;5037791;28;20416;-80
2021/07/04 02:08:59;;;;;;;;;;;;;;;-142.75;77.33;76334.09;5037279;28;19917;-80
2021/07/04 02:11:25;;;;;;;;;;;;;;;-142.75;77.25;76341.97;5036864;28;19921;-80
2021/07/04 02:13:50;;;;;;;;;;;;;;;-142.75;77.07;76341.97;5054696;28;19956;-80
2021/07/04 02:16:16;;;;;;;;;;;;;;;-142.75;77.13;76334.09;5036842;28;20671;-79
2021/07/04 02:18:41;;;;;;;;;;;;;;;-142.75;77.34;76334.09;5037525;28;20027;-80
2021/07/04 02:21:07;;;;;;;;;;;;;;;-142.75;77.53;76334.09;5054719;28;19959;-80
2021/07/04 02:23:33;;;;;;;;;;;;;;;-142.75;77.65;76340.00;5036970;28;19925;-80
2021/07/04 02:25:58;;;;;;;;;;;;;;;-142.75;77.68;76330.16;5036976;28;19924;-80
2021/07/04 02:28:26;;;;;;;;;;;;;;;-142.75;77.82;76322.28;5037058;28;20541;-80
2021/07/04 02:30:52;;;;;;;;;;;;;;;-142.75;77.53;76328.19;5035290;28;19920;-80
2021/07/04 02:33:18;;;;;;;;;;;;;;;-142.75;77.51;76332.13;5036658;28;19924;-79
2021/07/04 02:35:45;;;;;;;;;;;;;;;-142.75;77.65;76330.16;5054757;28;19923;-79
2021/07/04 02:38:11;;;;;;;;;;;;;;;-142.75;77.60;76330.16;5036795;28;19917;-78
2021/07/04 02:40:36;;;;;;;;;;;;;;;-142.75;77.65;76334.09;5036382;28;19926;-80
2021/07/04 02:43:03;;;;;;;;;;;;;;;-142.75;77.79;76328.19;5054350;28;19924;-80
2021/07/04 02:45:28;;;;;;;;;;;;;;;-142.75;77.78;76308.50;5054485;28;19916;-80
2021/07/04 02:47:53;;;;;;;;;;;;;;;-142.75;77.61;76314.41;5054395;28;19986;-80
2021/07/04 02:50:21;;;;;;;;;;;;;;;-142.75;77.55;76316.38;5036793;28;20496;-80
2021/07/04 02:52:47;;;;;;;;;;;;;;;-142.75;77.45;76314.41;5037238;28;19970;-80
2021/07/04 02:55:12;;;;;;;;;;;;;;;-142.75;77.42;76320.31;5054807;28;19920;-79
2021/07/04 02:57:37;;;;;;;;;;;;;;;-142.75;77.42;76312.44;5054827;28;19923;-79
2021/07/04 03:00:04;;;;;;;;;;;;;;;-142.75;77.34;76314.41;5054583;28;19919;-80
2021/07/04 03:02:29;;;;;;;;;;;;;;;-142.75;77.25;76314.41;5055311;28;19932;-80
2021/07/04 03:04:54;;;;;;;;;;;;;;;-142.75;77.10;76320.31;5037226;28;20311;-80
2021/07/04 03:07:20;;;;;;;;;;;;;;;-142.75;77.19;76312.44;5037041;28;19917;-79
2021/07/04 03:09:45;;;;;;;;;;;;;;;-142.75;77.05;76308.50;5054478;28;19920;-81
2021/07/04 03:12:10;;;;;;;;;;;;;;;-142.75;77.06;76306.53;5036060;28;19921;-79
2021/07/04 03:14:36;;;;;;;;;;;;;;;-142.75;76.97;76314.41;5036197;28;19920;-80
2021/07/04 03:17:01;;;;;;;;;;;;;;;-142.75;76.95;76310.47;5036775;28;19917;-80
2021/07/04 03:19:26;;;;;;;;;;;;;;;-142.75;76.83;76320.31;5055179;28;20370;-80
2021/07/04 03:21:52;;;;;;;;;;;;;;;-142.75;76.55;76341.97;5036149;28;20382;-79
2021/07/04 03:24:17;;;;;;;;;;;;;;;-142.75;76.73;76349.81;5036166;28;19925;-79
2021/07/04 03:26:42;;;;;;;;;;;;;;;-142.75;76.78;76357.69;5036053;28;20012;-78
2021/07/04 03:29:07;;;;;;;;;;;;;;;-142.75;76.91;76361.63;5053905;28;20263;-79
2021/07/04 03:31:32;;;;;;;;;;;;;;;-142.75;77.05;76369.50;5035513;28;19939;-81
2021/07/04 03:33:58;;;;;;;;;;;;;;;-142.75;77.09;76365.56;5053485;28;20030;-80
2021/07/04 03:36:23;;;;;;;;;;;;;;;-142.75;77.04;76369.50;5035995;28;20389;-81
2021/07/04 03:38:48;;;;;;;;;;;;;;;-142.75;77.07;76367.53;5054009;28;19921;-80
2021/07/04 03:41:13;;;;;;;;;;;;;;;-142.75;77.09;76359.66;5035634;28;19975;-79
2021/07/04 03:43:38;;;;;;;;;;;;;;;-142.75;77.04;76365.56;5053237;28;19943;-80
2021/07/04 03:46:03;;;;;;;;;;;;;;;-142.75;76.88;76375.41;5053079;28;19917;-80
2021/07/04 03:48:29;;;;;;;;;;;;;;;-142.75;76.74;76389.19;5035623;28;19916;-80
2021/07/04 03:50:54;;;;;;;;;;;;;;;-142.75;76.62;76393.13;5053406;28;20441;-80
2021/07/04 03:53:19;;;;;;;;;;;;;;;-142.75;76.81;76397.06;5053744;28;20556;-81
2021/07/04 03:55:44;;;;;;;;;;;;;;;-142.75;76.94;76391.16;5035255;28;19920;-81
2021/07/04 03:58:10;;;;;;;;;;;;;;;-142.75;76.92;76397.06;5035161;28;19995;-80
2021/07/04 04:00:36;;;;;;;;;;;;;;;-142.75;76.79;76393.13;5052548;28;19923;-78
2021/07/04 04:03:01;;;;;;;;;;;;;;;-142.75;76.85;76397.06;5053315;28;19917;-80
2021/07/04 04:05:26;;;;;;;;;;;;;;;-142.75;77.01;76401.00;5035413;28;19932;-79
2021/07/04 04:07:51;;;;;;;;;;;;;;;-142.75;77.01;76408.88;5035655;28;20412;-81
2021/07/04 04:10:17;;;;;;;;;;;;;;;-142.75;77.05;76406.91;5035020;28;19925;-81
2021/07/04 04:12:42;;;;;;;;;;;;;;;-142.75;77.07;76401.00;5052973;28;19916;-80
2021/07/04 04:15:08;;;;;;;;;;;;;;;-142.75;76.94;76410.84;5035174;28;19924;-80
2021/07/04 04:17:33;;;;;;;;;;;;;;;-142.75;77.04;76410.84;5035196;28;19968;-80
2021/07/04 04:19:59;;;;;;;;;;;;;;;-142.75;76.98;76412.81;5035023;28;19917;-81
2021/07/04 04:22:24;;;;;;;;;;;;;;;-142.75;76.66;76416.75;5034463;28;19917;-80
2021/07/04 04:24:49;;;;;;;;;;;;;;;-142.75;76.51;76420.69;5053184;28;19924;-80
2021/07/04 04:27:15;;;;;;;;;;;;;;;-142.75;76.55;76424.63;5035409;28;19935;-80
2021/07/04 04:29:41;;;;;;;;;;;;;;;-142.75;76.61;76422.66;5053508;28;19921;-81
2021/07/04 04:32:06;;;;;;;;;;;;;;;-142.75;76.87;76422.66;5052893;28;19920;-80
2021/07/04 04:34:32;;;;;;;;;;;;;;;-142.75;76.95;76420.69;5035157;28;19952;-80
2021/07/04 04:36:58;;;;;;;;;;;;;;;-142.75;77.11;76402.97;5035178;28;19916;-80
2021/07/04 04:39:23;;;;;;;;;;;;;;;-142.75;77.23;76397.06;5034534;28;20517;-80
2021/07/04 04:41:48;;;;;;;;;;;;;;;-142.75;77.29;76397.06;5034814;28;19924;-80
2021/07/04 04:44:14;;;;;;;;;;;;;;;-142.75;77.18;76385.25;5034839;28;19917;-81
2021/07/04 04:46:39;;;;;;;;;;;;;;;-142.75;77.19;76377.38;5052823;28;19971;-80
2021/07/04 04:49:05;;;;;;;;;;;;;;;-142.75;77.12;76375.41;5052712;28;20030;-80
2021/07/04 04:51:30;;;;;;;;;;;;;;;-142.75;76.98;76363.59;5034826;28;20409;-80
2021/07/04 04:53:55;;;;;;;;;;;;;;;-142.75;76.91;76357.69;5035002;28;19955;-81
2021/07/04 04:56:20;;;;;;;;;;;;;;;-142.75;76.79;76349.81;5052919;28;19917;-80
2021/07/04 04:58:46;;;;;;;;;;;;;;;-142.75;76.61;76330.16;5034384;28;19920;-80
2021/07/04 05:01:11;;;;;;;;;;;;;;;-142.75;76.33;76316.38;5052035;28;20354;-80
2021/07/04 05:03:36;;;;;;;;;;;;;;;-142.75;76.03;76302.59;5052630;28;19921;-80
2021/07/04 05:06:02;;;;;;;;;;;;;;;-142.75;75.62;76302.59;5052376;28;20390;-79
2021/07/04 05:08:28;;;;;;;;;;;;;;;-142.75;75.44;76282.91;5033203;28;19917;-80
2021/07/04 05:10:54;;;;;;;;;;;;;;;-142.75;75.12;76271.09;5034069;28;19924;-80
2021/07/04 05:13:19;;;;;;;;;;;;;;;-142.75;74.41;76255.34;5052303;28;19920;-81
2021/07/04 05:15:44;;;;;;;;;;;;;;;-142.75;74.51;76239.59;5052462;28;19917;-81
2021/07/04 05:18:09;;;;;;;;;;;;;;;-142.75;74.41;76215.97;5034077;28;20386;-81
2021/07/04 05:20:34;;;;;;;;;;;;;;;-142.75;74.01;76196.31;5033671;28;20408;-80
2021/07/04 05:23:00;;;;;;;;;;;;;;;-142.75;73.44;76174.66;5034017;28;20318;-82
2021/07/04 05:25:25;;;;;;;;;;;;;;;-142.75;72.48;76154.97;5051937;28;19970;-79
2021/07/04 05:27:50;;;;;;;;;;;;;;;-142.75;71.74;76133.31;5052034;28;19962;-81
2021/07/04 05:30:15;;;;;;;;;;;;;;;-142.75;71.44;76123.47;5033621;28;19931;-81
2021/07/04 05:32:41;;;;;;;;;;;;;;;-142.75;70.24;76115.59;5034092;28;19970;-81
2021/07/04 05:35:06;;;;;;;;;;;;;;;-142.75;70.01;76119.53;5056723;28;19986;-81
2021/07/04 05:37:33;;;;;;;;;;;;;;;-142.75;70.26;76111.66;5040501;28;19917;-79
2021/07/04 05:40:02;;;;;;;;;;;;;;;-142.75;70.28;76101.81;5040372;28;19999;-81
2021/07/04 05:42:27;;;;;;;;;;;;;;;-142.75;69.78;76097.88;5040614;28;19927;-80
2021/07/04 05:44:52;;;;;;;;;;;;;;;-142.75;69.22;76091.97;5040570;28;19917;-81
2021/07/04 05:47:17;;;;;;;;;;;;;;;-142.75;69.69;76062.47;5040269;28;20011;-81
2021/07/04 05:49:42;;;;;;;;;;;;;;;-142.75;69.01;76044.75;5040202;28;19921;-81
2021/07/04 05:52:08;;;;;;;;;;;;;;;-142.75;68.55;75999.47;5040464;28;19932;-81
2021/07/04 05:54:33;;;;;;;;;;;;;;;-142.75;65.53;75973.88;5040315;28;19916;-83
2021/07/04 05:56:58;;;;;;;;;;;;;;;-142.75;65.57;75918.78;5040050;28;20370;-80
2021/07/04 05:59:23;;;;;;;;;;;;;;;-142.75;64.06;75889.25;5040384;28;20295;-81
2021/07/04 06:01:48;;;;;;;;;;;;;;;-142.75;64.33;75834.16;5039994;28;20345;-81
2021/07/04 06:04:13;;;;;;;;;;;;;;;-142.75;61.16;75788.88;5058503;28;19964;-80
2021/07/04 06:06:39;;;;;;;;;;;;;;;-142.75;59.38;75759.38;5058198;28;19917;-81
2021/07/04 06:09:04;;;;;;;;;;;;;;;-142.75;59.61;75723.94;5040099;28;19921;-81
2021/07/04 06:11:29;;;;;;;;;;;;;;;-142.75;57.48;75708.19;5057843;28;19935;-81
2021/07/04 06:13:55;;;;;;;;;;;;;;;-142.75;59.38;75692.44;5040272;28;19917;-80
2021/07/04 06:16:20;;;;;;;;;;;;;;;-142.75;56.29;75718.03;5087228;22;19927;-82
2021/07/04 06:18:45;;;;;;;;;;;;;;;-142.75;58.38;75735.75;5077033;28;20047;-83
2021/07/04 06:21:10;;;;;;;;;;;;;;;-142.75;58.64;75761.34;5078990;28;19916;-82
2021/07/04 06:23:35;;;;;;;;;;;;;;;-142.75;59.04;75749.53;5091228;28;19916;-83
2021/07/04 06:26:01;;;;;;;;;;;;;;;-142.75;59.16;75716.06;5088887;28;20380;-81
2021/07/04 06:28:26;;;;;;;;;;;;;;;-142.75;56.58;75686.53;5077003;28;19974;-81
2021/07/04 06:30:51;;;;;;;;;;;;;;;-142.75;58.13;75676.69;5087981;28;19924;-82
2021/07/04 06:33:16;;;;;;;;;;;;;;;-142.75;57.42;75712.13;5093812;28;19917;-84
2021/07/04 06:35:42;;;;;;;;;;;;;;;-142.75;58.64;75723.94;5076865;28;19966;-84
2021/07/04 06:38:07;;;;;;;;;;;;;;;-142.75;57.11;75735.75;5077926;28;19952;-84
2021/07/04 06:40:32;;;;;;;;;;;;;;;-142.75;57.88;75745.59;5089311;28;19924;-84
2021/07/04 06:42:57;;;;;;;;;;;;;;;-142.75;58.97;75747.56;5094728;28;19927;-83
2021/07/04 06:45:23;;;;;;;;;;;;;;;-142.75;57.67;75698.34;5078198;28;19917;-83
2021/07/04 06:47:48;;;;;;;;;;;;;;;-142.75;57.40;75660.97;5086665;28;19923;-82
2021/07/04 06:50:15;;;;;;;;;;;;;;;-142.75;56.36;75641.28;5075153;28;20003;-83
2021/07/04 06:52:41;;;;;;;;;;;;;;;-142.75;56.94;75635.38;5085778;28;20321;-83
2021/07/04 06:55:06;;;;;;;;;;;;;;;-142.75;56.56;75621.59;5090779;28;19916;-83
2021/07/04 06:57:32;;;;;;;;;;;;;;;-142.75;56.88;75562.56;5093413;28;19923;-83
2021/07/04 06:59:58;;;;;;;;;;;;;;;-142.75;56.57;75454.31;5090792;28;19920;-83
2021/07/04 07:02:24;;;;;;;;;;;;;;;-142.75;50.42;75409.06;5076823;28;19921;-85
2021/07/04 07:04:49;;;;;;;;;;;;;;;-142.75;50.67;75401.19;5076035;28;20019;-84
2021/07/04 07:07:15;;;;;;;;;;;;;;;-142.75;51.49;75438.56;5084853;28;20013;-85
2021/07/04 07:09:40;;;;;;;;;;;;;;;-142.75;51.08;75458.25;5076322;28;19924;-82
2021/07/04 07:12:05;;;;;;;;;;;;;;;-142.75;51.88;75495.66;5077721;28;19963;-82
2021/07/04 07:14:30;;;;;;;;;;;;;;;-142.75;50.64;75511.41;5086231;28;19916;-82
2021/07/04 07:16:56;;;;;;;;;;;;;;;-142.75;50.88;75538.94;5088059;28;19916;-81
2021/07/04 07:19:21;;;;;;;;;;;;;;;-142.75;52.34;75550.75;5078183;28;19916;-82
2021/07/04 07:21:46;;;;;;;;;;;;;;;-142.75;52.81;75507.47;5090102;28;19981;-83
2021/07/04 07:24:11;;;;;;;;;;;;;;;-142.75;51.87;75436.59;5088046;28;19924;-83
2021/07/04 07:26:36;;;;;;;;;;;;;;;-142.75;49.68;75432.69;5086782;28;20369;-83
2021/07/04 07:29:02;;;;;;;;;;;;;;;-142.75;51.30;75422.84;5077605;28;19924;-84
2021/07/04 07:31:27;;;;;;;;;;;;;;;-142.75;51.40;75438.56;5074566;28;20389;-84
2021/07/04 07:33:53;;;;;;;;;;;;;;;-142.75;51.43;75468.09;5076705;28;19917;-85
2021/07/04 07:36:18;;;;;;;;;;;;;;;-142.75;52.34;75472.03;5076030;28;19916;-84
2021/07/04 07:38:43;;;;;;;;;;;;;;;-142.75;51.67;75466.13;5085862;28;20002;-86
2021/07/04 07:41:08;;;;;;;;;;;;;;;-142.75;52.16;75472.03;5086095;28;19923;-83
2021/07/04 07:43:33;;;;;;;;;;;;;;;-142.75;52.56;75424.81;5073617;28;19921;-83
2021/07/04 07:45:59;;;;;;;;;;;;;;;-142.75;49.95;75296.88;5076848;28;19916;-82
2021/07/04 07:48:24;;;;;;;;;;;;;;;-142.75;46.20;75172.91;5086762;28;19916;-83
2021/07/04 07:50:49;;;;;;;;;;;;;;;-142.75;45.69;75035.19;5084630;28;19924;-82
2021/07/04 07:53:14;;;;;;;;;;;;;;;-142.75;42.89;74944.66;5075334;28;19916;-83
2021/07/04 07:55:40;;;;;;;;;;;;;;;-142.75;42.29;74923.03;5084586;28;19990;-83
2021/07/04 07:58:05;;;;;;;;;;;;;;;-142.75;39.68;74901.38;5074289;28;19963;-82
2021/07/04 08:00:30;;;;;;;;;;;;;;;-142.75;40.05;74860.06;5073510;28;20331;-82
2021/07/04 08:02:55;;;;;;;;;;;;;;;-142.75;41.10;74875.78;5090316;28;19917;-83
2021/07/04 08:05:20;;;;;;;;;;;;;;;-142.75;39.61;74850.22;5073916;28;19924;-81
2021/07/04 08:07:46;;;;;;;;;;;;;;;-142.75;38.07;74808.91;5075714;28;19917;-84
2021/07/04 08:10:13;;;;;;;;;;;;;;;-142.75;39.66;74789.22;5082655;28;19936;-82
2021/07/04 08:12:39;;;;;;;;;;;;;;;-142.75;38.00;74934.81;5086677;28;20023;-82
2021/07/04 08:15:05;;;;;;;;;;;;;;;-142.75;40.38;74761.66;5090173;28;19936;-83
2021/07/04 08:17:30;;;;;;;;;;;;;;;-142.75;37.68;74743.97;5075120;28;20149;-82
2021/07/04 08:19:55;;;;;;;;;;;;;;;-142.75;38.84;74684.94;5074059;28;19930;-81
2021/07/04 08:22:20;;;;;;;;;;;;;;;-142.75;37.24;74637.72;5084589;28;19916;-81
2021/07/04 08:24:46;;;;;;;;;;;;;;;-142.75;35.58;74753.81;5076268;28;19966;-81
2021/07/04 08:27:11;;;;;;;;;;;;;;;-142.75;38.69;74641.66;5082294;28;19970;-81
2021/07/04 08:29:36;;;;;;;;;;;;;;;-142.75;36.31;74562.94;5082549;28;19973;-83
2021/07/04 08:32:01;;;;;;;;;;;;;;;-142.75;36.64;74708.53;5074600;28;20275;-84
2021/07/04 08:34:26;;;;;;;;;;;;;;;-142.75;36.51;74856.13;5072834;28;20408;-81
2021/07/04 08:36:52;;;;;;;;;;;;;;;-142.75;38.67;74944.66;5082884;28;19976;-81
2021/07/04 08:39:17;;;;;;;;;;;;;;;-142.75;41.92;75149.31;5079813;28;19927;-81
2021/07/04 08:41:42;;;;;;;;;;;;;;;-142.75;39.72;74917.13;5085325;28;19909;-81
2021/07/04 08:44:11;;;;;;;;;;;;;;;-142.75;39.83;74905.31;5084539;28;19927;-80
2021/07/04 08:46:40;;;;;;;;;;;;;;;-142.75;39.07;74785.28;5092628;28;20011;-80
2021/07/04 08:49:05;;;;;;;;;;;;;;;-142.75;37.91;74649.53;5075273;28;19920;-80
2021/07/04 08:51:30;;;;;;;;;;;;;;;-142.75;36.41;74598.38;5094406;28;19942;-81
2021/07/04 08:53:56;;;;;;;;;;;;;;;-142.75;37.41;74783.31;5074936;28;19920;-80
2021/07/04 08:56:21;;;;;;;;;;;;;;;-142.75;38.33;74909.25;5082978;28;19924;-79
2021/07/04 08:58:46;;;;;;;;;;;;;;;-142.75;40.55;75037.16;5085130;28;20451;-81
2021/07/04 09:01:16;;;;;;;;;;;;;;;-142.75;39.71;74911.22;5072243;28;20374;-79
2021/07/04 09:03:43;;;;;;;;;;;;;;;-142.75;36.92;74834.47;5073853;28;20515;-79
2021/07/04 09:06:09;;;;;;;;;;;;;;;-142.75;37.95;74665.25;5081419;28;20362;-84
2021/07/04 09:08:36;;;;;;;;;;;;;;;-142.75;34.89;74592.47;5068658;28;19924;-83
2021/07/04 09:11:08;;;;;;;;;;;;;;;-142.75;35.64;74643.63;5073729;28;19953;-83
2021/07/04 09:13:33;;;;;;;;;;;;;;;-142.75;35.13;74771.50;5083209;28;20297;-81
2021/07/04 09:16:08;;;;;;;;;;;;;;;-142.75;36.76;74856.13;5073895;28;19949;-81
2021/07/04 09:18:33;;;;;;;;;;;;;;;-142.75;38.25;74720.34;5079092;28;20428;-81
2021/07/04 09:20:58;;;;;;;;;;;;;;;-142.75;37.79;74747.91;5074006;28;19916;-81
2021/07/04 09:23:33;;;;;;;;;;;;;;;-142.75;37.95;74932.84;5073463;28;19970;-82
2021/07/04 09:25:59;;;;;;;;;;;;;;;-142.75;38.46;74934.81;5085268;28;19938;-81
2021/07/04 09:28:24;;;;;;;;;;;;;;;-142.75;39.55;74755.78;5092028;28;21197;-80
2021/07/04 09:30:53;;;;;;;;;;;;;;;-142.75;37.22;74789.22;5080928;28;20317;-80
2021/07/04 09:33:26;;;;;;;;;;;;;;;-142.75;38.19;74795.13;5083101;28;19920;-80
2021/07/04 09:35:55;;;;;;;;;;;;;;;-142.75;39.04;74726.25;5091566;28;20031;-80
2021/07/04 09:38:20;;;;;;;;;;;;;;;-142.75;36.51;74732.16;5081351;28;20317;-80
2021/07/04 09:40:47;;;;;;;;;;;;;;;-142.75;37.45;74891.53;5080353;28;20011;-79
2021/07/04 09:43:17;;;;;;;;;;;;;;;-142.75;40.47;74865.97;5086237;28;20399;-81
2021/07/04 09:45:56;;;;;;;;;;;;;;;-142.75;36.46;74877.75;5080808;28;20565;-81
2021/07/04 09:48:27;;;;;;;;;;;;;;;-142.75;39.17;74867.91;5076160;28;19939;-81
2021/07/04 09:50:54;;;;;;;;;;;;;;;-142.75;37.79;74854.16;5086657;28;19924;-80
2021/07/04 09:53:20;;;;;;;;;;;;;;;-142.75;38.85;74858.09;5074880;28;19921;-83
2021/07/04 09:55:50;;;;;;;;;;;;;;;-142.75;38.13;74783.31;5079126;28;19938;-81
2021/07/04 09:58:15;;;;;;;;;;;;;;;-142.75;38.03;74779.38;5073397;28;20004;-81
2021/07/04 10:00:42;;;;;;;;;;;;;;;-142.75;38.03;74781.34;5073106;28;19947;-80
2021/07/04 10:03:09;;;;;;;;;;;;;;;-142.75;38.75;74820.69;5071928;28;19970;-80
2021/07/04 10:05:35;;;;;;;;;;;;;;;-142.75;38.59;74803.00;5073845;28;20290;-80
2021/07/04 10:08:00;;;;;;;;;;;;;;;-142.75;36.62;74732.16;5086946;28;20405;-78
2021/07/04 10:10:25;;;;;;;;;;;;;;;-142.75;37.49;74720.34;5070429;28;20011;-80
2021/07/04 10:12:52;;;;;;;;;;;;;;;-142.75;37.32;74732.16;5085571;28;19928;-81
2021/07/04 10:15:17;;;;;;;;;;;;;;;-142.75;37.19;74830.53;5071959;28;19916;-81
2021/07/04 10:17:42;;;;;;;;;;;;;;;-142.75;39.64;74850.22;5072585;28;20023;-80
2021/07/04 10:20:09;;;;;;;;;;;;;;;-142.75;40.18;74873.81;5069932;28;19924;-80
2021/07/04 10:22:36;;;;;;;;;;;;;;;-142.75;39.96;74864.00;5074762;28;20019;-82
2021/07/04 10:25:03;;;;;;;;;;;;;;;-142.75;39.63;75050.91;5086363;28;19924;-80
2021/07/04 10:27:28;;;;;;;;;;;;;;;-142.75;41.84;74991.88;5075376;28;20369;-83
2021/07/04 10:29:54;;;;;;;;;;;;;;;-142.75;40.47;74999.75;5096336;28;19927;-80
2021/07/04 10:32:20;;;;;;;;;;;;;;;-142.75;40.98;75007.63;5084953;28;19916;-81
2021/07/04 10:34:48;;;;;;;;;;;;;;;-142.75;41.03;74984.00;5077400;28;20374;-80
2021/07/04 10:37:14;;;;;;;;;;;;;;;-142.75;40.95;74956.47;5077744;28;20395;-80
2021/07/04 10:39:39;;;;;;;;;;;;;;;-142.75;39.54;74982.03;5076964;28;19943;-80
2021/07/04 10:42:08;;;;;;;;;;;;;;;-142.75;41.52;75019.44;5076202;28;20381;-79
2021/07/04 10:44:41;;;;;;;;;;;;;;;-142.75;41.82;75019.44;5080254;28;19920;-80
2021/07/04 10:47:11;;;;;;;;;;;;;;;-142.75;40.38;75180.78;5078793;28;19923;-80
2021/07/04 10:49:44;;;;;;;;;;;;;;;-142.75;42.10;75251.63;5078281;28;20110;-81
2021/07/04 10:52:27;;;;;;;;;;;;;;;-142.75;44.64;75233.91;5092515;28;19923;-81
2021/07/04 10:54:54;;;;;;;;;;;;;;;-142.75;43.02;75263.44;5088075;28;20061;-80
2021/07/04 10:57:33;;;;;;;;;;;;;;;-142.75;43.01;75259.50;5097278;28;19919;-80
2021/07/04 11:00:02;;;;;;;;;;;;;;;-142.75;45.21;75243.75;5075725;28;19939;-80
2021/07/04 11:02:41;;;;;;;;;;;;;;;-142.75;45.56;75222.13;5074414;28;19916;-80
2021/07/04 11:05:25;;;;;;;;;;;;;;;-142.75;43.77;75188.66;5079143;28;20474;-80
2021/07/04 11:07:53;;;;;;;;;;;;;;;-142.75;43.75;75167.00;5079581;28;19915;-80
2021/07/04 11:10:24;;;;;;;;;;;;;;;-142.75;44.93;75151.28;5095525;28;19920;-79
2021/07/04 11:12:50;;;;;;;;;;;;;;;-142.75;43.53;75125.69;5094734;28;19935;-83
2021/07/04 11:15:21;;;;;;;;;;;;;;;-142.75;43.18;75182.75;5091677;28;20003;-82
2021/07/04 11:17:56;;;;;;;;;;;;;;;-142.75;42.31;75125.69;5081430;28;20300;-80
2021/07/04 11:20:22;;;;;;;;;;;;;;;-142.75;42.29;75204.41;5095771;28;20335;-81
2021/07/04 11:22:54;;;;;;;;;;;;;;;-142.75;43.37;75188.66;5072906;28;19931;-80
2021/07/04 11:25:20;;;;;;;;;;;;;;;-142.75;41.60;75170.94;5075241;28;19922;-83
2021/07/04 11:27:45;;;;;;;;;;;;;;;-142.75;43.09;75147.34;5073797;28;20018;-82
2021/07/04 11:30:31;;;;;;;;;;;;;;;-142.75;42.35;75239.81;5073182;28;19920;-79
2021/07/04 11:33:15;;;;;;;;;;;;;;;-142.75;42.85;75318.53;5074766;28;19916;-82
2021/07/04 11:35:43;;;;;;;;;;;;;;;-142.75;41.59;75261.47;5074855;28;19964;-81
2021/07/04 11:38:13;;;;;;;;;;;;;;;-142.75;43.45;75196.53;5073187;28;20007;-79
2021/07/04 11:40:39;;;;;;;;;;;;;;;-142.75;43.02;75090.28;5073041;28;19952;-80
2021/07/04 11:43:31;;;;;;;;;;;;;;;-142.75;41.11;75023.38;5073158;28;20397;-80
2021/07/04 11:45:57;;;;;;;;;;;;;;;-142.75;40.89;74984.00;5070771;28;20435;-77
2021/07/04 11:48:42;;;;;;;;;;;;;;;-142.75;42.39;75003.69;5073330;28;19917;-79
2021/07/04 11:51:08;;;;;;;;;;;;;;;-142.75;41.37;75133.56;5074939;28;19924;-78
2021/07/04 11:53:42;;;;;;;;;;;;;;;-142.75;43.52;75271.31;5075250;28;20366;-79
2021/07/04 11:56:08;;;;;;;;;;;;;;;-142.75;44.68;75218.19;5074806;28;20011;-80
2021/07/04 11:58:33;;;;;;;;;;;;;;;-142.75;44.90;75208.34;5074934;28;19944;-79
2021/07/04 12:00:58;;;;;;;;;;;;;;;-142.75;44.23;75192.59;5074347;28;20010;-80
2021/07/04 12:03:24;;;;;;;;;;;;;;;-142.75;43.55;75161.13;5073206;28;19917;-77
2021/07/04 12:05:50;;;;;;;;;;;;;;;-142.75;42.73;75153.25;5075103;28;19986;-79
2021/07/04 12:08:15;;;;;;;;;;;;;;;-142.75;43.85;75151.28;5074956;28;20282;-80
2021/07/04 12:10:51;;;;;;;;;;;;;;;-142.75;43.49;75172.91;5072565;28;19943;-81
2021/07/04 12:13:16;;;;;;;;;;;;;;;-142.75;43.67;75204.41;5074477;28;19916;-80
2021/07/04 12:15:47;;;;;;;;;;;;;;;-142.75;45.57;75212.28;5093301;28;19923;-79
2021/07/04 12:18:13;;;;;;;;;;;;;;;-142.75;46.99;75243.75;5097679;22;19924;-77
2021/07/04 12:20:39;;;;;;;;;;;;;;;-142.75;47.67;75271.31;5057347;28;20382;-78
2021/07/04 12:23:06;;;;;;;;;;;;;;;-142.75;47.27;75314.59;5073735;28;19916;-78